Time;durP1;ratioP1;P1;durP2;ratioP2;P2;SDS_P1;SDS_P2;PMS_P1;PMS_P2;Temp;Humidity;BMP_temperature;BMP_pressure;BME280_temperature;BME280_humidity;BME280_pressure;Samples;Min_cycle;Max_cycle;Signal;HPM_P1;HPM_P2
2022/09/26 00:01:38;;;;;;;18.88;14.63;;;;;;;12.46;72.66;97763.13;5010690;28;20532;-79
2022/09/26 00:04:08;;;;;;;17.98;14.07;;;;;;;12.46;72.79;97765.88;5022619;28;20026;-79
2022/09/26 00:06:34;;;;;;;18.08;14.75;;;;;;;12.48;73.51;97762.81;5013595;28;20034;-80
2022/09/26 00:08:59;;;;;;;19.15;14.80;;;;;;;12.49;73.03;97767.97;5010801;28;20034;-80
2022/09/26 00:11:29;;;;;;;18.65;13.95;;;;;;;12.48;73.28;97760.88;5012575;28;20531;-79
2022/09/26 00:13:58;;;;;;;17.08;14.00;;;;;;;12.45;73.18;97761.50;5007097;28;20042;-79
2022/09/26 00:16:24;;;;;;;19.65;14.63;;;;;;;12.43;73.09;97750.03;5012080;28;20735;-79
2022/09/26 00:18:51;;;;;;;18.80;14.82;;;;;;;12.41;72.97;97740.50;5005547;28;20359;-79
2022/09/26 00:21:18;;;;;;;17.85;14.00;;;;;;;12.41;73.17;97746.00;5009620;28;20026;-79
2022/09/26 00:23:43;;;;;;;19.88;15.00;;;;;;;12.38;72.91;97736.47;5020591;28;20038;-78
2022/09/26 00:26:10;;;;;;;20.70;15.95;;;;;;;12.38;73.38;97736.47;5004207;28;20053;-79
2022/09/26 00:28:36;;;;;;;19.27;14.63;;;;;;;12.38;73.37;97730.97;5009323;28;20054;-79
2022/09/26 00:31:04;;;;;;;17.25;13.93;;;;;;;12.38;73.53;97736.47;5008876;28;20053;-79
2022/09/26 00:33:29;;;;;;;18.15;14.57;;;;;;;12.38;73.49;97733.72;5018936;28;20026;-79
2022/09/26 00:35:55;;;;;;;17.88;13.63;;;;;;;12.40;73.81;97739.72;5009359;28;20042;-79
2022/09/26 00:38:21;;;;;;;18.23;14.40;;;;;;;12.37;73.71;97740.34;5009466;28;20435;-79
2022/09/26 00:40:47;;;;;;;16.30;13.50;;;;;;;12.36;73.46;97736.00;5019479;28;20071;-79
2022/09/26 00:43:29;;;;;;;17.45;14.20;;;;;;;12.36;73.58;97731.28;5018586;28;20065;-79
2022/09/26 00:46:18;;;;;;;17.98;14.35;;;;;;;12.37;73.49;97723.84;5012526;28;20037;-79
2022/09/26 00:48:49;;;;;;;17.08;13.38;;;;;;;12.39;73.62;97729.84;5007776;28;20045;-78
2022/09/26 00:51:14;;;;;;;15.60;13.30;;;;;;;12.41;73.62;97726.75;5009357;28;20033;-78
2022/09/26 00:53:45;;;;;;;18.75;13.02;;;;;;;12.43;73.64;97727.22;5010270;28;20051;-78
2022/09/26 00:56:16;;;;;;;18.20;12.98;;;;;;;12.46;73.77;97723.84;5010521;28;20026;-78
2022/09/26 00:58:47;;;;;;;16.80;12.50;;;;;;;12.49;73.88;97729.47;5012627;28;20041;-79
2022/09/26 01:01:13;;;;;;;17.55;12.57;;;;;;;12.54;73.92;97727.69;5022271;28;20117;-79
2022/09/26 01:03:43;;;;;;;15.75;11.95;;;;;;;12.58;73.79;97728.66;5014162;28;20429;-78
2022/09/26 01:06:08;;;;;;;18.67;12.38;;;;;;;12.60;73.61;97729.97;5009159;28;20042;-78
2022/09/26 01:08:39;;;;;;;16.02;12.40;;;;;;;12.60;73.74;97727.22;5011174;28;20433;-78
2022/09/26 01:11:05;;;;;;;15.75;12.48;;;;;;;12.63;73.90;97722.97;5010155;28;20034;-78
2022/09/26 01:13:33;;;;;;;17.20;12.85;;;;;;;12.63;73.73;97726.53;5011956;28;20045;-78
2022/09/26 01:15:58;;;;;;;16.08;12.45;;;;;;;12.63;73.97;97715.53;5010320;28;20044;-79
2022/09/26 01:18:23;;;;;;;15.20;12.15;;;;;;;12.64;74.14;97717.13;5010708;28;20394;-78
2022/09/26 01:21:12;;;;;;;14.98;11.95;;;;;;;12.65;73.67;97718.75;5015906;28;20029;-78
2022/09/26 01:24:06;;;;;;;14.30;11.65;;;;;;;12.70;73.81;97716.97;5010770;28;20018;-78
2022/09/26 01:26:44;;;;;;;16.67;12.32;;;;;;;12.71;73.76;97710.31;4995066;28;20049;-78
2022/09/26 01:29:43;;;;;;;17.00;12.73;;;;;;;12.73;73.78;97699.81;5032239;28;20385;-78
2022/09/26 01:35:27;;;;;;;16.42;11.82;;;;;;;12.77;73.73;97698.00;5011557;28;20044;-78
2022/09/26 01:38:14;;;;;;;15.57;12.93;;;;;;;12.75;73.40;97701.09;5012986;28;20028;-78
2022/09/26 01:40:42;;;;;;;18.48;13.40;;;;;;;12.77;73.48;97693.31;5022478;28;20355;-78
2022/09/26 01:43:07;;;;;;;17.95;14.68;;;;;;;12.79;73.77;97690.22;5014680;28;20029;-78
2022/09/26 01:46:02;;;;;;;18.75;14.32;;;;;;;12.78;73.42;97677.59;5011847;28;20040;-78
2022/09/26 01:48:32;;;;;;;18.33;14.60;;;;;;;12.78;73.67;97683.13;4988135;28;20041;-77
2022/09/26 01:51:08;;;;;;;18.33;14.88;;;;;;;12.78;73.85;97672.09;5012750;28;20033;-79
2022/09/26 01:53:49;;;;;;;20.17;14.85;;;;;;;12.78;74.04;97678.44;5016368;28;20489;-78
2022/09/26 01:56:19;;;;;;;20.77;15.75;;;;;;;12.78;73.54;97683.94;5017617;28;20072;-78
2022/09/26 01:58:50;;;;;;;22.45;16.20;;;;;;;12.79;73.62;97687.47;5012605;28;20045;-78
2022/09/26 02:01:19;;;;;;;19.50;16.20;;;;;;;12.77;73.58;97685.06;5012302;28;20033;-78
2022/09/26 02:03:58;;;;;;;20.52;16.42;;;;;;;12.75;73.55;97676.34;5010783;28;20034;-78
2022/09/26 02:06:32;;;;;;;20.13;15.70;;;;;;;12.77;73.41;97678.75;5015575;28;20120;-78
2022/09/26 02:09:07;;;;;;;20.10;15.63;;;;;;;12.75;73.34;97678.28;5010505;28;20462;-78
2022/09/26 02:11:34;;;;;;;21.85;16.42;;;;;;;12.74;73.41;97671.97;5010844;28;20026;-78
2022/09/26 02:14:07;;;;;;;20.17;16.80;;;;;;;12.73;73.24;97666.78;5027066;28;20101;-78
2022/09/26 02:16:43;;;;;;;21.77;16.88;;;;;;;12.70;73.28;97667.44;5023678;28;20029;-79
2022/09/26 02:19:19;;;;;;;21.48;16.90;;;;;;;12.67;73.16;97660.66;5010131;28;20037;-78
2022/09/26 02:21:45;;;;;;;19.90;16.08;;;;;;;12.65;73.24;97654.69;5010939;28;20828;-79
2022/09/26 02:24:11;;;;;;;21.92;16.35;;;;;;;12.60;73.13;97647.44;5011743;28;20030;-79
2022/09/26 02:26:37;;;;;;;21.48;16.25;;;;;;;12.58;73.49;97651.63;5006832;28;20513;-79
2022/09/26 02:29:03;;;;;;;22.65;17.05;;;;;;;12.56;73.07;97643.72;5023883;28;20118;-78
2022/09/26 02:31:34;;;;;;;23.95;17.08;;;;;;;12.51;72.98;97647.44;5011582;28;20061;-79
2022/09/26 02:34:01;;;;;;;22.90;16.50;;;;;;;12.50;73.22;97647.78;5010463;28;20025;-79
2022/09/26 02:36:27;;;;;;;26.30;16.52;;;;;;;12.50;73.24;97654.09;5013053;28;20545;-78
2022/09/26 02:38:53;;;;;;;28.98;19.92;;;;;;;12.47;73.36;97643.75;5026279;28;20555;-79
2022/09/26 02:41:32;;;;;;;26.65;17.88;;;;;;;12.49;73.46;97640.69;5011809;28;20030;-78
2022/09/26 02:44:12;;;;;;;23.83;17.50;;;;;;;12.46;73.19;97638.56;5011961;28;20060;-78
2022/09/26 02:47:09;;;;;;;20.25;15.60;;;;;;;12.45;73.15;97626.75;5009029;28;20038;-79
2022/09/26 02:49:37;;;;;;;22.10;15.32;;;;;;;12.44;73.42;97624.34;5011181;28;20033;-78
2022/09/26 02:52:31;;;;;;;20.40;15.80;;;;;;;12.42;73.27;97630.19;5011861;28;20125;-78
2022/09/26 02:55:11;;;;;;;22.23;16.50;;;;;;;12.44;73.58;97630.63;5010371;28;20041;-78
2022/09/26 02:57:44;;;;;;;26.27;19.80;;;;;;;12.40;73.15;97626.97;5010688;28;20489;-78
2022/09/26 03:00:21;;;;;;;28.25;19.50;;;;;;;12.40;73.18;97626.13;5010976;28;20021;-78
2022/09/26 03:03:11;;;;;;;25.85;19.40;;;;;;;12.36;73.52;97626.78;5011103;28;20096;-78
2022/09/26 03:05:41;;;;;;;27.38;19.65;;;;;;;12.35;73.22;97627.94;5010622;28;20034;-78
2022/09/26 03:08:13;;;;;;;25.30;19.05;;;;;;;12.30;73.08;97624.56;5010836;28;20033;-78
2022/09/26 03:10:39;;;;;;;25.35;18.85;;;;;;;12.27;73.00;97616.97;5011455;28;20022;-78
2022/09/26 03:13:09;;;;;;;25.90;19.00;;;;;;;12.23;73.50;97616.00;5010876;28;20030;-78
2022/09/26 03:15:37;;;;;;;24.85;19.08;;;;;;;12.20;73.31;97612.78;5010500;28;20486;-78
2022/09/26 03:18:06;;;;;;;24.60;18.98;;;;;;;12.19;73.09;97613.91;5010570;28;20430;-78
2022/09/26 03:20:32;;;;;;;28.17;20.10;;;;;;;12.17;72.90;97609.88;5010853;28;20038;-78
2022/09/26 03:22:58;;;;;;;28.55;19.48;;;;;;;12.13;72.94;97609.72;5009360;28;20284;-78
2022/09/26 03:25:26;;;;;;;31.70;20.80;;;;;;;12.12;73.33;97608.09;5008161;28;20055;-78
2022/09/26 03:27:52;;;;;;;30.98;20.38;;;;;;;12.11;73.38;97612.00;5008514;28;20033;-78
2022/09/26 03:30:20;;;;;;;28.38;18.60;;;;;;;12.10;73.13;97610.38;5016717;28;20053;-78
2022/09/26 03:32:46;;;;;;;26.70;17.40;;;;;;;12.11;73.65;97603.75;5014182;28;20045;-78
2022/09/26 03:35:12;;;;;;;25.45;17.73;;;;;;;12.11;73.17;97601.00;5023247;28;20069;-77
2022/09/26 03:37:37;;;;;;;25.52;18.00;;;;;;;12.12;73.54;97601.81;5011596;28;20030;-78
2022/09/26 03:40:12;;;;;;;28.02;18.48;;;;;;;12.11;73.61;97594.69;5009877;28;20037;-78
2022/09/26 03:42:38;;;;;;;29.75;18.50;;;;;;;12.10;73.67;97593.88;5010961;28;20034;-78
2022/09/26 03:45:07;;;;;;;30.13;18.98;;;;;;;12.09;73.23;97585.97;5010202;28;20049;-78
2022/09/26 03:47:33;;;;;;;28.65;20.50;;;;;;;12.08;73.57;97587.91;5022585;28;20045;-78
2022/09/26 03:49:59;;;;;;;27.30;18.63;;;;;;;12.11;73.73;97589.22;5028861;28;20083;-78
2022/09/26 03:52:25;;;;;;;25.92;18.95;;;;;;;12.11;73.78;97584.50;5006148;28;20482;-78
2022/09/26 03:54:52;;;;;;;27.88;18.67;;;;;;;12.11;73.86;97584.50;5018233;28;20101;-78
2022/09/26 03:57:17;;;;;;;27.02;18.40;;;;;;;12.12;73.63;97586.13;5010080;28;20034;-78
2022/09/26 03:59:43;;;;;;;25.95;17.67;;;;;;;12.13;73.80;97579.47;5010426;28;20379;-78
2022/09/26 04:02:08;;;;;;;27.45;18.45;;;;;;;12.14;73.62;97586.59;5009705;28;20116;-79
2022/09/26 04:04:34;;;;;;;23.88;18.25;;;;;;;12.16;73.59;97589.81;5008084;28;20466;-78
2022/09/26 04:06:59;;;;;;;25.35;17.88;;;;;;;12.18;74.13;97584.00;5011553;28;20034;-78
2022/09/26 04:09:25;;;;;;;26.48;19.25;;;;;;;12.19;73.80;97580.13;5010246;28;20037;-78
2022/09/26 04:11:52;;;;;;;28.02;18.95;;;;;;;12.20;74.17;97590.00;5013165;28;20026;-78
2022/09/26 04:14:18;;;;;;;24.35;18.58;;;;;;;12.22;73.46;97587.72;5014526;28;20080;-78
2022/09/26 04:16:44;;;;;;;28.35;18.75;;;;;;;12.23;74.09;97581.06;5011908;28;20381;-78
2022/09/26 04:19:11;;;;;;;25.15;18.70;;;;;;;12.27;74.30;97583.97;5013955;28;20026;-78
2022/09/26 04:21:39;;;;;;;25.55;18.98;;;;;;;12.27;74.04;97575.72;5010935;28;20037;-78
2022/09/26 04:24:12;;;;;;;25.30;17.80;;;;;;;12.28;73.72;97580.09;5014018;28;20474;-79
2022/09/26 04:26:40;;;;;;;23.45;16.80;;;;;;;12.28;74.04;97564.38;5012799;28;20536;-78
2022/09/26 04:29:05;;;;;;;23.98;16.42;;;;;;;12.30;74.15;97569.56;5012814;28;20034;-78
2022/09/26 04:31:34;;;;;;;22.17;16.27;;;;;;;12.30;74.07;97569.56;5013443;28;20080;-78
2022/09/26 04:33:59;;;;;;;21.02;15.30;;;;;;;12.31;74.16;97565.69;5011150;28;20065;-78
2022/09/26 04:36:25;;;;;;;21.20;14.35;;;;;;;12.31;74.09;97565.69;5012947;28;20029;-78
2022/09/26 04:38:50;;;;;;;21.15;14.35;;;;;;;12.31;74.18;97563.72;5009857;28;20033;-78
2022/09/26 04:41:19;;;;;;;18.30;14.00;;;;;;;12.33;74.07;97569.72;5008098;28;20108;-84
2022/09/26 04:43:44;;;;;;;19.45;14.50;;;;;;;12.35;74.15;97564.69;5010504;28;20032;-74
2022/09/26 04:46:16;;;;;;;21.13;14.60;;;;;;;12.36;74.39;97566.31;5010443;28;20034;-74
2022/09/26 04:48:42;;;;;;;19.50;14.77;;;;;;;12.38;74.41;97560.50;5011446;28;20113;-76
2022/09/26 04:51:10;;;;;;;21.58;15.65;;;;;;;12.40;74.06;97569.22;5009379;28;20406;-77
2022/09/26 04:53:37;;;;;;;20.92;15.13;;;;;;;12.39;74.52;97561.28;5006228;28;20032;-77
2022/09/26 04:56:03;;;;;;;17.52;13.82;;;;;;;12.39;74.45;97567.59;5005561;28;22066;-77
2022/09/26 04:58:29;;;;;;;17.88;14.27;;;;;;;12.41;74.18;97559.00;5006319;28;20109;-77
2022/09/26 05:00:55;;;;;;;21.10;14.55;;;;;;;12.42;74.29;97564.19;5007827;28;20490;-76
2022/09/26 05:03:20;;;;;;;20.77;14.80;;;;;;;12.44;74.78;97559.16;5008338;28;20103;-75
2022/09/26 05:05:46;;;;;;;19.35;15.52;;;;;;;12.46;74.53;97562.38;5004895;28;20038;-78
2022/09/26 05:08:13;;;;;;;23.13;15.65;;;;;;;12.49;74.62;97564.47;5008808;28;20449;-77
2022/09/26 05:10:39;;;;;;;20.83;15.32;;;;;;;12.52;74.86;97557.50;5007426;28;20040;-78
2022/09/26 05:13:06;;;;;;;23.10;16.52;;;;;;;12.54;74.64;97555.22;5006026;28;20026;-78
2022/09/26 05:15:38;;;;;;;23.83;17.05;;;;;;;12.56;74.58;97565.88;5005074;28;20030;-78
2022/09/26 05:18:06;;;;;;;23.00;17.77;;;;;;;12.58;74.44;97556.19;5010128;28;20029;-78
2022/09/26 05:20:33;;;;;;;21.40;16.13;;;;;;;12.60;74.65;97553.09;5008304;28;20038;-78
2022/09/26 05:23:02;;;;;;;22.25;16.33;;;;;;;12.62;74.75;97550.81;5015923;28;20120;-74
2022/09/26 05:28:15;;;;;;;22.33;16.45;;;;;;;12.69;74.87;97547.53;5010667;28;20143;-74
2022/09/26 05:30:42;;;;;;;22.65;16.42;;;;;;;12.71;74.48;97545.25;5006278;28;20061;-74
2022/09/26 05:33:07;;;;;;;19.98;15.15;;;;;;;12.71;74.61;97546.06;5006221;28;20052;-75
2022/09/26 05:35:34;;;;;;;19.63;14.90;;;;;;;12.74;74.95;97542.66;5008271;28;20034;-74
2022/09/26 05:38:03;;;;;;;16.90;13.85;;;;;;;12.78;74.91;97542.78;5031117;28;20036;-74
2022/09/26 05:43:13;;;;;;;17.08;13.00;;;;;;;12.86;75.21;97541.13;5009578;28;20119;-74
2022/09/26 05:45:39;;;;;;;15.50;12.15;;;;;;;12.89;75.13;97548.69;5013344;28;20026;-74
2022/09/26 05:48:05;;;;;;;16.00;12.75;;;;;;;12.92;75.12;97542.53;5007434;28;20037;-75
2022/09/26 05:50:32;;;;;;;16.00;12.07;;;;;;;12.96;75.38;97543.47;5009573;28;20033;-75
2022/09/26 05:52:58;;;;;;;16.05;12.38;;;;;;;13.01;75.03;97546.03;5010735;28;20026;-74
2022/09/26 05:55:24;;;;;;;17.27;12.90;;;;;;;13.04;75.04;97545.38;5019770;28;20168;-76
2022/09/26 05:57:51;;;;;;;17.88;13.02;;;;;;;13.06;74.54;97550.53;5011915;28;20105;-75
2022/09/26 06:00:16;;;;;;;19.00;12.98;;;;;;;13.09;75.23;97542.41;5010986;28;20115;-75
2022/09/26 06:02:42;;;;;;;23.25;14.20;;;;;;;13.09;75.10;97547.94;5012678;28;20457;-75
2022/09/26 06:05:08;;;;;;;22.38;14.90;;;;;;;13.10;74.95;97546.78;5011686;28;20030;-77
2022/09/26 06:07:33;;;;;;;28.27;17.55;;;;;;;13.11;74.99;97539.31;5014216;28;20137;-75
2022/09/26 06:09:58;;;;;;;26.73;16.63;;;;;;;13.16;75.02;97543.84;5018809;28;20049;-76
2022/09/26 06:12:27;;;;;;;32.03;19.80;;;;;;;13.18;74.90;97547.84;5019589;28;20044;-78
2022/09/26 06:14:52;;;;;;;40.75;23.55;;;;;;;13.19;74.99;97545.91;5011638;28;20025;-77
2022/09/26 06:17:18;;;;;;;37.72;23.88;;;;;;;13.23;75.16;97546.88;5004956;28;20394;-78
2022/09/26 06:19:43;;;;;;;28.73;20.08;;;;;;;13.26;75.17;97540.66;5008309;28;20033;-78
2022/09/26 06:22:09;;;;;;;25.60;18.75;;;;;;;13.28;75.05;97538.38;5006755;28;20037;-78
2022/09/26 06:24:35;;;;;;;22.52;16.02;;;;;;;13.30;75.16;97533.34;5004025;28;20029;-78
2022/09/26 06:27:00;;;;;;;18.80;16.08;;;;;;;13.33;75.02;97534.63;5003114;28;20056;-78
2022/09/26 06:29:26;;;;;;;18.33;14.73;;;;;;;13.36;75.35;97543.00;5003737;28;20036;-77
2022/09/26 06:31:51;;;;;;;17.27;13.38;;;;;;;13.40;75.37;97537.66;5007982;28;20026;-77
2022/09/26 06:34:16;;;;;;;15.25;12.02;;;;;;;13.45;75.32;97545.72;5008333;28;20110;-77
2022/09/26 06:36:42;;;;;;;16.67;12.18;;;;;;;13.50;75.21;97540.00;5011128;28;20083;-77
2022/09/26 06:39:08;;;;;;;14.27;11.43;;;;;;;13.54;75.36;97546.44;5008253;28;20045;-76
2022/09/26 06:41:34;;;;;;;15.65;12.30;;;;;;;13.58;75.24;97548.53;5013520;28;20036;-77
2022/09/26 06:44:01;;;;;;;17.80;12.85;;;;;;;13.61;75.30;97545.91;5006895;28;20080;-77
2022/09/26 06:46:30;;;;;;;17.63;13.10;;;;;;;13.66;75.38;97551.19;5007060;28;20490;-76
2022/09/26 06:48:56;;;;;;;15.88;11.77;;;;;;;13.72;75.39;97545.47;5009121;28;20034;-76
2022/09/26 06:51:22;;;;;;;17.95;12.40;;;;;;;13.78;75.46;97552.38;5009772;28;20547;-76
2022/09/26 06:53:47;;;;;;;16.33;11.95;;;;;;;13.84;75.37;97557.34;5023676;28;20026;-76
2022/09/26 06:56:12;;;;;;;19.90;13.55;;;;;;;13.89;75.31;97558.25;5008763;28;20057;-75
2022/09/26 06:58:38;;;;;;;23.58;13.20;;;;;;;13.93;75.41;97553.69;5010065;28;20541;-76
2022/09/26 07:01:05;;;;;;;21.75;14.00;;;;;;;13.96;75.30;97553.81;5010378;28;20120;-77
2022/09/26 07:03:30;;;;;;;19.63;13.52;;;;;;;14.02;75.52;97548.09;5017771;28;20057;-77
2022/09/26 07:05:56;;;;;;;19.00;14.35;;;;;;;14.06;75.21;97552.56;5013800;28;20041;-75
2022/09/26 07:08:22;;;;;;;18.38;13.82;;;;;;;14.12;75.54;97544.88;5027540;28;20370;-75
2022/09/26 07:10:48;;;;;;;18.40;13.32;;;;;;;14.15;75.16;97552.47;5010969;28;20040;-76
2022/09/26 07:13:15;;;;;;;16.23;12.80;;;;;;;14.17;75.18;97552.94;5011352;28;20457;-74
2022/09/26 07:15:43;;;;;;;18.00;13.48;;;;;;;14.21;75.27;97553.06;5011915;28;20061;-75
2022/09/26 07:18:09;;;;;;;20.13;14.52;;;;;;;14.26;75.21;97552.84;5020982;28;20509;-76
2022/09/26 07:20:39;;;;;;;19.38;14.07;;;;;;;14.29;75.40;97554.88;5029736;28;20033;-76
2022/09/26 07:23:08;;;;;;;19.73;15.10;;;;;;;14.29;75.33;97558.47;5009432;28;20092;-76
2022/09/26 07:25:34;;;;;;;;;;;;;;;14.33;74.78;97555.03;5009863;28;21432;-76
2022/09/26 07:28:01;;;;;;;21.33;14.13;;;;;;;14.34;75.03;97556.63;5010154;28;19967;-76
2022/09/26 07:30:27;;;;;;;18.60;14.63;;;;;;;14.33;75.06;97560.53;5012912;28;20032;-74
2022/09/26 07:32:57;;;;;;;19.60;13.93;;;;;;;14.33;75.09;97561.31;5009533;28;20045;-75
2022/09/26 07:35:24;;;;;;;18.80;13.68;;;;;;;14.35;74.96;97561.78;5011845;28;20017;-75
2022/09/26 07:37:52;;;;;;;20.30;14.70;;;;;;;14.40;74.85;97560.78;5008746;28;20462;-76
2022/09/26 07:40:19;;;;;;;19.77;14.05;;;;;;;14.42;75.07;97559.28;5007780;28;20033;-75
2022/09/26 07:42:45;;;;;;;20.73;13.90;;;;;;;14.44;75.25;97545.16;5005653;28;20025;-76
2022/09/26 07:45:11;;;;;;;19.67;12.77;;;;;;;14.45;74.91;97546.75;5002535;28;20081;-76
2022/09/26 07:50:21;;;;;;;19.13;13.43;;;;;;;14.56;75.39;97547.91;5001178;28;20572;-75
2022/09/26 07:52:48;;;;;;;19.33;13.95;;;;;;;14.61;75.16;97551.56;5011298;28;20120;-75
2022/09/26 07:55:24;;;;;;;18.35;14.38;;;;;;;14.65;75.15;97546.97;5009469;28;20508;-75
2022/09/26 07:57:50;;;;;;;20.08;13.93;;;;;;;14.67;75.23;97539.94;5003384;28;20089;-75
2022/09/26 08:00:18;;;;;;;20.85;14.57;;;;;;;14.67;74.88;97539.94;5011784;28;20512;-75
2022/09/26 08:02:45;;;;;;;21.13;14.52;;;;;;;14.68;74.66;97552.59;4997963;28;20030;-74
2022/09/26 08:05:18;;;;;;;23.00;14.27;;;;;;;14.70;74.82;97552.31;5007370;28;20034;-74
2022/09/26 08:07:45;;;;;;;19.85;13.90;;;;;;;14.73;74.58;97546.09;5006152;28;20026;-73
2022/09/26 08:10:20;;;;;;;20.77;14.95;;;;;;;14.76;74.58;97550.09;5003248;28;20065;-76
2022/09/26 08:12:46;;;;;;;21.13;14.43;;;;;;;14.78;74.80;97554.13;5007098;28;20030;-77
2022/09/26 08:15:12;;;;;;;18.38;14.00;;;;;;;14.81;74.94;97553.44;5004996;28;20022;-76
2022/09/26 08:17:38;;;;;;;18.00;13.38;;;;;;;14.81;74.63;97552.63;5007879;28;20073;-77
2022/09/26 08:20:04;;;;;;;18.73;14.98;;;;;;;14.84;74.44;97551.94;5002711;28;20440;-81
2022/09/26 08:22:29;;;;;;;21.50;13.80;;;;;;;14.89;74.71;97549.72;5007059;28;20038;-77
2022/09/26 08:24:55;;;;;;;16.02;12.13;;;;;;;14.92;74.38;97545.50;5012709;28;20142;-77
2022/09/26 08:27:21;;;;;;;19.15;12.93;;;;;;;14.94;74.19;97545.94;5018077;28;20124;-80
2022/09/26 08:29:48;;;;;;;19.70;14.05;;;;;;;14.97;74.27;97549.97;5007330;28;20030;-79
2022/09/26 08:32:15;;;;;;;21.60;13.80;;;;;;;15.01;74.08;97550.88;5000323;28;20028;-77
2022/09/26 08:34:41;;;;;;;20.65;13.35;;;;;;;15.01;74.29;97550.88;5009472;28;20029;-78
2022/09/26 08:37:07;;;;;;;18.88;13.38;;;;;;;15.00;73.99;97546.50;5005847;28;20026;-76
2022/09/26 08:39:32;;;;;;;17.85;12.68;;;;;;;15.00;74.32;97543.75;5007415;28;20034;-79
2022/09/26 08:42:07;;;;;;;18.83;12.48;;;;;;;15.06;74.21;97547.88;5000815;28;20065;-79
2022/09/26 08:44:54;;;;;;;17.35;12.95;;;;;;;15.10;74.52;97542.44;5004110;28;20398;-78
2022/09/26 08:47:31;;;;;;;17.83;12.15;;;;;;;15.14;74.24;97544.19;5008312;28;20101;-76
2022/09/26 08:50:06;;;;;;;16.77;12.85;;;;;;;15.20;74.13;97541.19;5007141;28;20030;-77
2022/09/26 08:52:36;;;;;;;17.45;12.77;;;;;;;15.25;73.93;97538.97;5003672;28;20105;-78
2022/09/26 08:55:06;;;;;;;;;;;;;;;15.31;73.57;97547.81;5008171;28;20057;-76
2022/09/26 08:57:39;;;;;;;16.73;12.90;;;;;;;15.39;74.23;97537.78;5001396;28;19924;-78
2022/09/26 09:00:17;;;;;;;18.88;13.55;;;;;;;15.42;74.24;97545.38;5004243;28;20033;-75
2022/09/26 09:02:47;;;;;;;18.67;12.87;;;;;;;15.48;74.14;97542.00;5007008;28;20095;-76
2022/09/26 09:05:23;;;;;;;16.88;13.10;;;;;;;15.57;74.17;97543.81;5006608;28;20116;-76
2022/09/26 09:07:53;;;;;;;15.82;12.02;;;;;;;15.63;73.88;97542.41;5004474;28;20030;-76
2022/09/26 09:10:36;;;;;;;16.10;11.63;;;;;;;15.68;73.62;97544.91;5011387;28;20044;-78
2022/09/26 09:13:11;;;;;;;14.40;11.30;;;;;;;15.74;73.80;97542.69;4999806;28;20700;-77
2022/09/26 09:15:51;;;;;;;16.48;10.90;;;;;;;15.78;73.39;97540.84;5016856;28;20057;-77
2022/09/26 09:18:47;;;;;;;17.45;12.00;;;;;;;15.86;73.40;97542.66;5017922;28;20406;-80
2022/09/26 09:21:30;;;;;;;13.88;10.65;;;;;;;15.95;73.02;97536.97;5010488;28;20038;-81
2022/09/26 09:24:34;;;;;;;15.23;10.27;;;;;;;16.02;73.08;97534.41;5021670;28;20430;-77
2022/09/26 09:27:02;;;;;;;13.57;9.70;;;;;;;16.13;73.05;97534.66;5008597;28;20053;-77
2022/09/26 09:29:39;;;;;;;12.68;8.70;;;;;;;16.21;72.92;97527.34;5013791;28;20025;-77
2022/09/26 09:32:08;;;;;;;12.35;8.68;;;;;;;16.31;72.76;97528.75;5009714;28;20045;-77
2022/09/26 09:34:40;;;;;;;9.93;7.90;;;;;;;16.40;72.57;97525.84;5017890;28;20036;-76
2022/09/26 09:37:25;;;;;;;8.32;6.72;;;;;;;16.51;72.95;97526.88;5012754;28;20049;-76
2022/09/26 09:39:51;;;;;;;7.28;6.07;;;;;;;16.60;72.15;97526.72;5008096;28;20084;-76
2022/09/26 09:42:26;;;;;;;8.10;6.38;;;;;;;16.66;72.12;97531.59;5008786;28;20497;-77
2022/09/26 09:45:03;;;;;;;9.82;6.90;;;;;;;16.71;71.95;97522.22;5015419;28;20037;-76
2022/09/26 09:47:28;;;;;;;10.52;7.57;;;;;;;16.78;71.75;97522.38;5023528;28;20131;-74
2022/09/26 09:49:55;;;;;;;9.48;7.50;;;;;;;16.83;71.94;97513.00;5011233;28;20114;-73
2022/09/26 09:52:36;;;;;;;9.35;7.05;;;;;;;16.88;71.73;97518.28;5010129;28;20029;-74
2022/09/26 09:55:26;;;;;;;10.52;8.23;;;;;;;16.87;71.62;97524.97;5009829;28;20573;-74
2022/09/26 09:58:13;;;;;;;12.73;8.88;;;;;;;16.88;71.47;97526.56;5002330;28;20141;-76
2022/09/26 10:00:46;;;;;;;11.48;8.15;;;;;;;16.93;71.59;97515.19;5011336;28;20389;-75
2022/09/26 10:03:24;;;;;;;12.77;8.48;;;;;;;16.95;71.24;97529.47;5008128;28;20026;-73
2022/09/26 10:05:57;;;;;;;12.10;7.45;;;;;;;16.98;71.34;97518.88;5006597;28;20026;-74
2022/09/26 10:08:39;;;;;;;9.05;7.35;;;;;;;17.03;71.20;97524.13;5015295;28;20507;-75
2022/09/26 10:11:11;;;;;;;9.70;7.82;;;;;;;17.05;70.89;97516.25;5016437;28;20502;-75
2022/09/26 10:13:41;;;;;;;10.35;7.82;;;;;;;17.13;70.98;97520.81;5001489;28;20036;-73
2022/09/26 10:16:08;;;;;;;10.50;7.85;;;;;;;17.19;70.60;97519.34;5011507;28;20347;-73
2022/09/26 10:18:52;;;;;;;10.55;7.65;;;;;;;17.20;70.69;97522.91;5008611;28;20026;-73
2022/09/26 10:21:18;;;;;;;11.68;7.70;;;;;;;17.20;70.53;97518.19;5015004;28;20033;-73
2022/09/26 10:23:50;;;;;;;11.25;7.95;;;;;;;17.20;70.39;97517.38;5009125;28;20685;-75
2022/09/26 10:26:23;;;;;;;10.50;8.60;;;;;;;17.30;70.78;97511.25;5006427;28;20045;-74
2022/09/26 10:29:26;;;;;;;11.10;8.00;;;;;;;17.35;70.46;97510.97;4998495;28;20030;-74
2022/09/26 10:31:59;;;;;;;10.00;7.72;;;;;;;17.40;70.16;97509.88;4995188;28;20084;-74
2022/09/26 10:34:29;;;;;;;11.43;8.05;;;;;;;17.48;70.36;97508.06;5009553;28;20427;-74
2022/09/26 10:36:55;;;;;;;9.98;7.80;;;;;;;17.53;69.85;97505.78;5004779;28;20113;-75
2022/09/26 10:42:18;;;;;;;9.70;6.97;;;;;;;17.66;69.72;97503.66;5007474;28;20114;-75
2022/09/26 10:44:46;;;;;;;10.60;6.68;;;;;;;17.67;69.49;97502.47;5027948;28;20029;-74
2022/09/26 10:47:25;;;;;;;10.82;6.90;;;;;;;17.67;69.26;97496.16;5028859;28;20113;-74
2022/09/26 10:50:15;;;;;;;12.10;7.65;;;;;;;17.67;69.30;97498.91;5017242;28;20037;-74
2022/09/26 10:53:07;;;;;;;10.30;7.22;;;;;;;17.70;69.11;97498.97;5010158;28;20104;-74
2022/09/26 10:55:42;;;;;;;10.35;7.47;;;;;;;17.81;69.25;97501.16;5003968;28;20116;-73
2022/09/26 10:58:16;;;;;;;9.20;7.07;;;;;;;17.85;68.95;97500.03;5010592;28;20036;-74
2022/09/26 11:00:50;;;;;;;9.27;7.20;;;;;;;17.87;68.59;97491.34;5008860;28;20029;-74
2022/09/26 11:03:20;;;;;;;10.35;8.95;;;;;;;17.92;68.58;97495.78;5010931;28;20338;-74
2022/09/26 11:05:56;;;;;;;10.50;8.27;;;;;;;17.98;68.69;97497.09;5007857;28;20060;-75
2022/09/26 11:08:28;;;;;;;11.35;7.57;;;;;;;18.01;68.23;97496.38;5009805;28;20426;-75
2022/09/26 11:10:55;;;;;;;8.70;6.88;;;;;;;18.04;68.00;97483.75;5008523;28;20037;-73
2022/09/26 11:13:27;;;;;;;12.65;8.20;;;;;;;18.04;67.74;97484.56;5009636;28;20063;-73
2022/09/26 11:16:00;;;;;;;9.32;7.57;;;;;;;18.06;67.79;97484.16;5006640;28;20033;-74
2022/09/26 11:18:56;;;;;;;9.68;7.97;;;;;;;18.08;67.71;97479.88;5010631;28;20045;-73
2022/09/26 11:21:36;;;;;;;9.85;8.00;;;;;;;18.10;67.12;97465.59;5009213;28;20040;-71
2022/09/26 11:24:14;;;;;;;11.55;8.48;;;;;;;18.12;66.71;97466.84;5021782;28;20038;-72
2022/09/26 11:26:52;;;;;;;9.60;7.43;;;;;;;18.20;66.96;97466.94;5010313;28;20057;-74
2022/09/26 11:29:40;;;;;;;8.50;7.07;;;;;;;18.30;66.91;97464.38;5008750;28;20481;-71
2022/09/26 11:32:12;;;;;;;10.48;7.15;;;;;;;18.47;67.04;97464.22;5006520;28;20076;-71
2022/09/26 11:34:39;;;;;;;9.95;7.15;;;;;;;18.60;67.11;97462.81;5007777;28;20029;-71
2022/09/26 11:37:29;;;;;;;8.57;7.40;;;;;;;18.70;66.58;97451.06;5020088;28;20037;-72
2022/09/26 11:40:03;;;;;;;9.05;6.78;;;;;;;18.80;66.51;97452.38;5008664;28;20034;-73
2022/09/26 11:42:58;;;;;;;7.93;7.07;;;;;;;18.88;66.13;97447.75;5011113;28;20525;-72
2022/09/26 11:45:54;;;;;;;9.50;6.93;;;;;;;18.89;65.58;97436.25;4980752;28;20065;-71
2022/09/26 11:48:27;;;;;;;10.20;6.47;;;;;;;18.91;65.30;97435.88;5006509;28;20048;-72
2022/09/26 11:50:52;;;;;;;7.72;6.57;;;;;;;18.93;63.88;97443.81;5010769;28;20109;-71